Time;durP1;ratioP1;P1;durP2;ratioP2;P2;SDS_P1;SDS_P2;PMS_P1;PMS_P2;Temp;Humidity;BMP_temperature;BMP_pressure;BME280_temperature;BME280_humidity;BME280_pressure;Samples;Min_cycle;Max_cycle;Signal;HPM_P1;HPM_P2
2021/09/06 00:00:59;;;;;;;10.00;7.40;;;21.90;99.30;;;;;;5002451;28;20722;-63
2021/09/06 00:03:25;;;;;;;6.70;5.70;;;21.80;99.50;;;;;;5002762;28;20205;-63
2021/09/06 00:05:50;;;;;;;6.90;6.13;;;21.90;99.40;;;;;;4999921;28;20209;-63
2021/09/06 00:08:16;;;;;;;6.60;6.00;;;21.90;99.40;;;;;;5002266;28;20553;-63
2021/09/06 00:10:44;;;;;;;7.43;6.70;;;21.90;99.30;;;;;;4999603;28;20268;-63
2021/09/06 00:13:12;;;;;;;6.77;6.10;;;21.90;99.10;;;;;;5001714;28;20545;-62
2021/09/06 00:15:39;;;;;;;8.93;7.07;;;21.90;99.30;;;;;;5005579;28;20448;-63
2021/09/06 00:18:06;;;;;;;8.40;7.10;;;21.90;99.30;;;;;;5001086;28;20883;-63
2021/09/06 00:20:34;;;;;;;8.57;6.50;;;21.80;99.10;;;;;;5007255;28;20486;-63
2021/09/06 00:22:59;;;;;;;7.57;6.67;;;21.60;99.30;;;;;;5006370;28;20488;-63
2021/09/06 00:25:25;;;;;;;7.23;6.53;;;21.70;99.10;;;;;;5001166;28;20862;-63
2021/09/06 00:27:52;;;;;;;9.20;6.40;;;21.80;99.40;;;;;;5003836;28;20239;-62
2021/09/06 00:30:17;;;;;;;8.67;6.80;;;21.70;99.30;;;;;;5005831;28;20276;-62
2021/09/06 00:32:43;;;;;;;7.03;6.33;;;21.70;99.50;;;;;;5005972;28;20530;-62
2021/09/06 00:35:09;;;;;;;7.73;7.00;;;21.60;99.80;;;;;;5004691;28;20193;-62
2021/09/06 00:37:35;;;;;;;7.57;6.50;;;21.50;99.90;;;;;;5004709;28;20576;-62
2021/09/06 00:40:00;;;;;;;7.63;5.60;;;21.50;99.90;;;;;;5004675;28;20439;-62
2021/09/06 00:42:26;;;;;;;8.63;7.83;;;21.40;99.90;;;;;;5003723;28;20182;-62
2021/09/06 00:44:52;;;;;;;11.00;6.03;;;21.50;99.90;;;;;;5001681;28;20212;-62
2021/09/06 00:47:17;;;;;;;7.00;6.30;;;21.60;99.90;;;;;;5001903;28;20209;-62
2021/09/06 00:49:43;;;;;;;8.13;7.33;;;21.60;99.90;;;;;;5001661;28;20276;-62
2021/09/06 00:52:08;;;;;;;7.57;6.50;;;21.50;99.90;;;;;;5001985;28;20708;-62
2021/09/06 00:54:34;;;;;;;8.20;7.07;;;21.60;99.90;;;;;;5004397;28;20221;-62
2021/09/06 00:57:00;;;;;;;8.07;7.20;;;21.50;99.90;;;;;;5003151;28;20225;-64
2021/09/06 00:59:25;;;;;;;6.73;6.13;;;21.50;99.90;;;;;;5004583;28;20203;-62
2021/09/06 01:01:51;;;;;;;6.90;6.20;;;21.50;99.90;;;;;;5004402;28;20563;-62
2021/09/06 01:04:16;;;;;;;7.70;6.90;;;21.50;99.90;;;;;;5003364;28;20671;-63
2021/09/06 01:06:42;;;;;;;8.20;6.93;;;21.50;99.90;;;;;;5004666;28;20671;-63
2021/09/06 01:09:08;;;;;;;8.70;6.80;;;21.40;99.90;;;;;;5003140;28;20182;-63
2021/09/06 01:11:34;;;;;;;7.93;6.37;;;21.30;99.90;;;;;;5004933;28;20463;-63
2021/09/06 01:14:00;;;;;;;10.03;7.07;;;21.30;99.90;;;;;;5005152;28;20256;-63
2021/09/06 01:16:26;;;;;;;9.10;7.00;;;21.40;99.90;;;;;;5003796;28;20206;-63
2021/09/06 01:18:51;;;;;;;8.50;7.47;;;21.40;99.90;;;;;;5002613;28;20436;-63
2021/09/06 01:21:17;;;;;;;7.00;6.40;;;21.40;99.90;;;;;;5003760;28;20279;-63
2021/09/06 01:23:43;;;;;;;8.07;7.27;;;21.40;99.90;;;;;;5003896;28;20366;-64
2021/09/06 01:26:09;;;;;;;8.27;6.80;;;21.20;99.90;;;;;;5003354;28;20457;-63
2021/09/06 01:28:35;;;;;;;6.90;6.20;;;21.20;99.90;;;;;;5001707;28;20271;-64
2021/09/06 01:31:02;;;;;;;10.03;7.20;;;21.30;99.90;;;;;;5004329;28;20440;-63
2021/09/06 01:33:27;;;;;;;8.50;7.30;;;21.20;99.90;;;;;;5004607;28;20506;-63
2021/09/06 01:35:53;;;;;;;8.03;7.23;;;21.30;99.90;;;;;;5006574;28;20970;-63
2021/09/06 01:38:19;;;;;;;7.57;6.60;;;21.30;99.90;;;;;;5000179;28;20281;-63
2021/09/06 01:40:44;;;;;;;6.90;6.20;;;21.20;99.90;;;;;;5005876;28;20189;-63
2021/09/06 01:43:10;;;;;;;6.93;6.23;;;21.10;99.90;;;;;;5004271;28;20540;-63
2021/09/06 01:45:36;;;;;;;7.03;6.30;;;21.10;99.90;;;;;;5000362;28;20288;-63
2021/09/06 01:48:01;;;;;;;9.97;6.60;;;21.10;99.90;;;;;;5005832;28;20553;-63
2021/09/06 01:50:27;;;;;;;7.47;6.70;;;21.00;99.90;;;;;;5003491;28;20723;-63
2021/09/06 01:52:53;;;;;;;8.20;7.10;;;21.10;99.90;;;;;;5001291;28;20185;-63
2021/09/06 01:55:18;;;;;;;7.67;6.93;;;21.10;99.90;;;;;;5003306;28;20692;-63
2021/09/06 01:57:44;;;;;;;7.20;6.40;;;21.10;99.90;;;;;;5004739;28;20295;-62
2021/09/06 02:00:10;;;;;;;7.67;6.87;;;21.10;99.90;;;;;;5002732;28;20204;-63
2021/09/06 02:02:35;;;;;;;7.27;6.57;;;21.00;99.90;;;;;;5003978;28;20632;-63
2021/09/06 02:05:01;;;;;;;7.57;6.87;;;20.90;99.90;;;;;;5001459;28;20300;-63
2021/09/06 02:07:27;;;;;;;7.47;6.63;;;20.90;99.90;;;;;;5005567;28;20251;-62
2021/09/06 02:09:52;;;;;;;8.40;6.63;;;21.00;99.90;;;;;;5000756;28;20280;-63
2021/09/06 02:12:18;;;;;;;10.00;7.10;;;20.90;99.90;;;;;;5004027;28;20259;-62
2021/09/06 02:14:44;;;;;;;9.83;7.60;;;20.70;99.90;;;;;;5003406;28;20648;-62
2021/09/06 02:17:09;;;;;;;6.70;6.00;;;20.70;99.90;;;;;;5005119;28;20209;-62
2021/09/06 02:19:35;;;;;;;7.93;6.70;;;20.80;99.90;;;;;;5006323;28;20228;-63
2021/09/06 02:22:00;;;;;;;7.93;6.80;;;20.80;99.90;;;;;;5000339;28;20193;-64
2021/09/06 02:24:26;;;;;;;7.30;6.57;;;20.90;99.90;;;;;;5003014;28;20223;-61
2021/09/06 02:26:52;;;;;;;7.57;6.87;;;20.90;99.90;;;;;;5002861;28;20718;-64
2021/09/06 02:29:18;;;;;;;11.10;7.67;;;20.80;99.90;;;;;;5000606;28;20194;-62
2021/09/06 02:31:44;;;;;;;8.17;6.10;;;20.60;99.90;;;;;;5003829;28;20454;-62
2021/09/06 02:34:10;;;;;;;7.10;6.30;;;20.60;99.90;;;;;;5001989;28;20745;-61
2021/09/06 02:36:36;;;;;;;7.70;6.87;;;20.50;99.90;;;;;;5000688;28;20579;-63
2021/09/06 02:39:03;;;;;;;7.70;6.90;;;20.40;99.90;;;;;;5003264;28;20455;-62
2021/09/06 02:41:29;;;;;;;10.40;6.90;;;20.50;99.90;;;;;;5004725;28;20447;-62
2021/09/06 02:43:55;;;;;;;8.50;7.70;;;20.50;99.90;;;;;;5003078;28;20518;-62
2021/09/06 02:46:20;;;;;;;9.13;6.40;;;20.50;99.90;;;;;;5003045;28;20750;-62
2021/09/06 02:48:46;;;;;;;9.60;6.40;;;20.50;99.90;;;;;;5002843;28;20201;-62
2021/09/06 02:51:12;;;;;;;7.70;7.00;;;20.50;99.90;;;;;;5001171;28;20197;-62
2021/09/06 02:53:37;;;;;;;8.27;6.53;;;20.50;99.90;;;;;;5005989;28;20186;-62
2021/09/06 02:56:03;;;;;;;6.97;6.30;;;20.50;99.90;;;;;;5001024;28;20216;-62
2021/09/06 02:58:29;;;;;;;6.90;6.17;;;20.60;99.90;;;;;;5003628;28;20193;-62
2021/09/06 03:00:54;;;;;;;8.60;6.90;;;20.50;99.90;;;;;;4999563;28;20211;-62
2021/09/06 03:03:21;;;;;;;8.93;7.10;;;20.50;99.90;;;;;;5001205;28;20220;-62
2021/09/06 03:05:47;;;;;;;28.40;7.67;;;20.20;99.90;;;;;;5004011;28;20209;-62
2021/09/06 03:08:13;;;;;;;8.07;7.27;;;20.20;99.90;;;;;;5000915;28;20451;-62
2021/09/06 03:10:38;;;;;;;7.63;6.10;;;20.30;99.90;;;;;;5002653;28;20899;-62
2021/09/06 03:13:04;;;;;;;7.57;6.77;;;20.10;99.90;;;;;;5002895;28;20600;-62
2021/09/06 03:15:29;;;;;;;9.50;7.07;;;20.10;99.90;;;;;;5003580;28;20201;-62
2021/09/06 03:17:56;;;;;;;8.20;7.30;;;20.00;99.90;;;;;;4999752;28;20201;-62
2021/09/06 03:20:22;;;;;;;8.20;6.40;;;20.10;99.90;;;;;;5002920;28;20185;-62
2021/09/06 03:22:47;;;;;;;7.40;6.70;;;20.10;99.90;;;;;;5000992;28;20451;-62
2021/09/06 03:25:13;;;;;;;31.53;9.23;;;20.10;99.90;;;;;;5003384;28;20241;-62
2021/09/06 03:27:39;;;;;;;7.83;6.50;;;20.20;99.90;;;;;;5004279;28;20259;-62
2021/09/06 03:30:05;;;;;;;11.77;7.90;;;20.30;99.90;;;;;;5001133;28;20287;-62
2021/09/06 03:32:30;;;;;;;7.40;6.70;;;20.20;99.90;;;;;;5001683;28;20240;-62
2021/09/06 03:34:56;;;;;;;12.33;6.63;;;20.10;99.90;;;;;;5002396;28;20432;-62
2021/09/06 03:37:22;;;;;;;7.30;6.13;;;20.10;99.90;;;;;;5003064;28;20210;-62
2021/09/06 03:39:47;;;;;;;10.60;7.07;;;20.20;99.90;;;;;;5002848;28;20201;-62
2021/09/06 03:42:13;;;;;;;9.10;7.57;;;20.20;99.90;;;;;;5001564;28;20193;-62
2021/09/06 03:44:39;;;;;;;7.20;6.50;;;20.00;99.90;;;;;;5003726;28;20589;-62
2021/09/06 03:47:04;;;;;;;7.20;6.23;;;19.90;99.90;;;;;;5002612;28;20205;-62
2021/09/06 03:49:30;;;;;;;7.17;6.43;;;20.10;99.90;;;;;;5002690;28;20658;-62
2021/09/06 03:51:56;;;;;;;7.07;6.37;;;20.10;99.90;;;;;;5001924;28;20276;-62
2021/09/06 03:54:21;;;;;;;8.00;7.20;;;20.10;99.90;;;;;;4999221;28;20193;-62
2021/09/06 03:56:47;;;;;;;8.30;7.50;;;20.10;99.90;;;;;;5001984;28;20267;-62
2021/09/06 03:59:12;;;;;;;8.03;6.10;;;20.00;99.90;;;;;;5000779;28;20243;-62
2021/09/06 04:01:38;;;;;;;7.43;6.40;;;20.00;99.90;;;;;;5001427;28;20311;-62
2021/09/06 04:04:04;;;;;;;7.50;6.80;;;19.80;99.90;;;;;;5001968;28;20221;-63
2021/09/06 04:06:29;;;;;;;7.77;6.97;;;19.80;99.90;;;;;;5005089;28;20209;-62
2021/09/06 04:08:55;;;;;;;7.13;6.37;;;19.80;99.90;;;;;;4999503;28;20191;-62
2021/09/06 04:11:21;;;;;;;7.37;6.10;;;19.90;99.90;;;;;;5005779;28;20221;-63
2021/09/06 04:13:47;;;;;;;8.00;6.43;;;19.60;99.90;;;;;;5001438;28;20450;-62
2021/09/06 04:16:13;;;;;;;9.73;7.00;;;19.60;99.90;;;;;;5000827;28;20231;-62
2021/09/06 04:18:39;;;;;;;6.83;6.17;;;19.80;99.90;;;;;;5004890;28;20219;-62
2021/09/06 04:21:05;;;;;;;9.47;6.10;;;19.80;99.90;;;;;;5001147;28;20182;-63
2021/09/06 04:23:31;;;;;;;8.83;7.93;;;19.80;99.90;;;;;;4999075;28;20517;-63
2021/09/06 04:26:00;;;;;;;7.67;6.90;;;19.80;99.90;;;;;;5002920;28;20514;-62
2021/09/06 04:28:26;;;;;;;8.63;7.70;;;19.80;99.90;;;;;;5002479;28;20844;-62
2021/09/06 04:30:51;;;;;;;11.73;7.50;;;19.70;99.90;;;;;;5000269;28;20478;-63
2021/09/06 04:33:17;;;;;;;7.90;7.10;;;19.80;99.90;;;;;;5002171;28;20589;-62
2021/09/06 04:35:42;;;;;;;7.63;6.83;;;19.70;99.90;;;;;;4999575;28;20213;-62
2021/09/06 04:38:08;;;;;;;8.43;7.23;;;19.80;99.90;;;;;;5002003;28;20276;-62
2021/09/06 04:40:34;;;;;;;8.53;6.93;;;19.80;99.90;;;;;;5001099;28;20197;-62
2021/09/06 04:43:00;;;;;;;7.47;6.50;;;19.70;99.90;;;;;;5002920;28;20288;-62
2021/09/06 04:45:25;;;;;;;9.70;7.60;;;19.60;99.90;;;;;;4996222;28;20621;-63
2021/09/06 04:47:51;;;;;;;8.13;7.20;;;19.60;99.90;;;;;;4998421;28;20269;-62
2021/09/06 04:50:17;;;;;;;11.00;7.00;;;19.50;99.90;;;;;;5001528;28;20185;-62
2021/09/06 04:52:42;;;;;;;8.30;7.10;;;19.50;99.90;;;;;;5000563;28;20269;-62
2021/09/06 04:55:08;;;;;;;10.93;7.90;;;19.50;99.90;;;;;;5004126;28;20929;-62
2021/09/06 04:57:34;;;;;;;7.83;7.03;;;19.60;99.90;;;;;;4997641;28;20623;-62
2021/09/06 04:59:59;;;;;;;8.77;7.87;;;19.60;99.90;;;;;;5002533;28;20751;-62
2021/09/06 05:02:25;;;;;;;8.90;7.90;;;19.60;99.90;;;;;;5005848;28;20197;-61
2021/09/06 05:04:50;;;;;;;9.20;8.20;;;19.60;99.90;;;;;;5006234;28;20244;-62
2021/09/06 05:07:17;;;;;;;10.70;7.20;;;19.50;99.90;;;;;;5004178;28;20197;-62
2021/09/06 05:09:42;;;;;;;9.00;7.33;;;19.40;99.90;;;;;;5004585;28;20662;-62
2021/09/06 05:12:08;;;;;;;8.60;7.57;;;19.30;99.90;;;;;;5005138;28;20591;-61
2021/09/06 05:14:34;;;;;;;9.50;7.60;;;19.20;99.90;;;;;;5003656;28;20280;-64
2021/09/06 05:17:00;;;;;;;9.20;7.80;;;19.40;99.90;;;;;;5004822;28;20296;-61
2021/09/06 05:19:25;;;;;;;10.30;7.63;;;19.40;99.90;;;;;;5004285;28;20193;-61
2021/09/06 05:21:51;;;;;;;8.17;6.83;;;19.40;99.90;;;;;;5002877;28;20473;-62
2021/09/06 05:24:17;;;;;;;9.40;7.57;;;19.40;99.90;;;;;;5004161;28;20307;-62
2021/09/06 05:26:42;;;;;;;9.90;8.90;;;19.30;99.90;;;;;;5000910;28;20205;-62
2021/09/06 05:29:08;;;;;;;9.57;7.90;;;19.20;99.90;;;;;;5003154;28;20672;-62
2021/09/06 05:31:33;;;;;;;10.67;7.60;;;19.30;99.90;;;;;;5004062;28;20236;-62
2021/09/06 05:33:59;;;;;;;8.33;7.53;;;19.30;99.90;;;;;;5004121;28;20248;-62
2021/09/06 05:36:25;;;;;;;11.20;8.20;;;19.30;99.90;;;;;;4998575;28;20220;-62
2021/09/06 05:38:51;;;;;;;9.70;8.00;;;19.20;99.90;;;;;;4999047;28;20252;-62
2021/09/06 05:41:19;;;;;;;9.53;8.03;;;19.20;99.90;;;;;;5005513;28;20197;-64
2021/09/06 05:43:45;;;;;;;9.90;8.10;;;19.20;99.90;;;;;;5003491;28;20931;-63
2021/09/06 05:46:11;;;;;;;9.33;8.33;;;19.20;99.90;;;;;;5001260;28;20461;-61
2021/09/06 05:48:36;;;;;;;9.57;8.50;;;19.20;99.90;;;;;;5006631;28;20181;-61
2021/09/06 05:51:02;;;;;;;13.30;8.67;;;19.20;99.90;;;;;;5003183;28;20181;-61
2021/09/06 05:53:27;;;;;;;7.80;6.60;;;19.00;99.90;;;;;;5006145;28;20680;-61
2021/09/06 05:55:53;;;;;;;13.97;8.23;;;19.00;99.90;;;;;;5003280;28;20216;-63
2021/09/06 05:58:19;;;;;;;11.27;8.50;;;19.10;99.90;;;;;;5001892;28;20644;-62
2021/09/06 06:00:44;;;;;;;8.93;7.70;;;19.20;99.90;;;;;;5006076;28;20189;-62
2021/09/06 06:03:10;;;;;;;9.50;7.67;;;19.30;99.90;;;;;;5005495;28;20224;-64
2021/09/06 06:05:35;;;;;;;8.60;7.73;;;19.20;99.90;;;;;;5003501;28;20213;-61
2021/09/06 06:08:01;;;;;;;9.03;7.37;;;19.20;99.90;;;;;;5000993;28;20197;-63
2021/09/06 06:10:27;;;;;;;10.60;8.70;;;19.20;99.90;;;;;;4998736;28;20197;-63
2021/09/06 06:12:52;;;;;;;9.90;8.00;;;19.20;99.90;;;;;;4997029;28;20193;-63
2021/09/06 06:15:18;;;;;;;12.93;8.53;;;19.20;99.90;;;;;;4987333;28;20611;-62
2021/09/06 06:17:44;;;;;;;10.43;8.70;;;19.30;99.90;;;;;;5004999;28;20656;-62
2021/09/06 06:20:10;;;;;;;10.87;7.83;;;19.30;99.90;;;;;;4998171;28;20298;-62
2021/09/06 06:22:36;;;;;;;10.80;8.10;;;19.20;99.90;;;;;;5004934;28;20251;-62
2021/09/06 06:25:02;;;;;;;9.73;7.40;;;19.40;99.90;;;;;;4999803;28;20476;-62
2021/09/06 06:27:28;;;;;;;8.20;7.37;;;19.40;99.90;;;;;;5000755;28;20292;-63
2021/09/06 06:29:53;;;;;;;8.57;7.70;;;19.50;99.90;;;;;;5000932;28;20527;-63
2021/09/06 06:32:19;;;;;;;10.13;8.60;;;19.50;99.90;;;;;;4999584;28;20579;-62
2021/09/06 06:34:44;;;;;;;10.10;8.40;;;19.40;99.90;;;;;;4997905;28;20756;-63
2021/09/06 06:37:10;;;;;;;11.07;8.27;;;19.40;99.90;;;;;;4999206;28;20233;-62
2021/09/06 06:39:36;;;;;;;10.60;8.13;;;19.50;99.90;;;;;;5001130;28;20220;-62
2021/09/06 06:42:01;;;;;;;8.50;7.50;;;19.60;99.90;;;;;;5003444;28;20599;-62
2021/09/06 06:44:27;;;;;;;8.80;7.60;;;19.60;99.90;;;;;;5001409;28;20964;-62
2021/09/06 06:46:53;;;;;;;12.60;8.30;;;19.70;99.90;;;;;;5001089;28;20944;-62
2021/09/06 06:49:19;;;;;;;10.80;8.10;;;19.70;99.90;;;;;;5000876;28;20197;-62
2021/09/06 06:51:45;;;;;;;12.20;8.30;;;19.70;99.90;;;;;;5000326;28;20279;-62
2021/09/06 06:54:10;;;;;;;14.53;8.63;;;19.60;99.90;;;;;;5000134;28;20225;-62
2021/09/06 06:56:36;;;;;;;9.63;7.40;;;19.70;99.90;;;;;;5003171;28;20882;-62
2021/09/06 06:59:02;;;;;;;9.43;7.83;;;19.80;99.90;;;;;;5000591;28;20197;-62
2021/09/06 07:01:27;;;;;;;7.57;6.87;;;19.80;99.90;;;;;;4998454;28;20193;-65
2021/09/06 07:03:53;;;;;;;10.80;7.70;;;19.80;99.90;;;;;;5004336;28;20203;-65
2021/09/06 07:06:19;;;;;;;9.03;7.00;;;19.90;99.90;;;;;;5004214;28;20244;-66
2021/09/06 07:08:44;;;;;;;8.77;7.27;;;19.90;99.90;;;;;;5000132;28;20193;-66
2021/09/06 07:11:10;;;;;;;12.00;7.53;;;19.80;99.90;;;;;;4998118;28;20194;-66
2021/09/06 07:13:35;;;;;;;10.63;6.93;;;19.90;99.90;;;;;;5002426;28;20703;-66
2021/09/06 07:16:01;;;;;;;9.77;7.07;;;20.00;99.90;;;;;;5001491;28;20296;-66
2021/09/06 07:18:27;;;;;;;9.90;8.00;;;20.00;99.90;;;;;;5004086;28;20197;-66
2021/09/06 07:20:52;;;;;;;12.23;8.17;;;20.00;99.90;;;;;;5003264;28;20193;-66
2021/09/06 07:23:18;;;;;;;9.27;8.33;;;20.10;99.90;;;;;;5005102;28;20219;-66
2021/09/06 07:25:43;;;;;;;9.13;7.33;;;20.10;99.90;;;;;;4997444;28;20264;-66
2021/09/06 07:28:09;;;;;;;9.97;7.70;;;20.10;99.90;;;;;;5003624;28;20191;-66
2021/09/06 07:30:35;;;;;;;9.80;7.27;;;20.20;99.90;;;;;;5000285;28;20194;-66
2021/09/06 07:33:02;;;;;;;7.90;6.80;;;20.10;99.90;;;;;;5001681;28;20193;-65
2021/09/06 07:35:28;;;;;;;11.53;7.80;;;20.30;99.90;;;;;;5000312;28;20195;-66
2021/09/06 07:37:54;;;;;;;8.47;6.77;;;20.50;99.90;;;;;;4999648;28;20890;-66
2021/09/06 07:40:20;;;;;;;9.10;7.20;;;20.60;99.90;;;;;;4999335;28;20200;-66
2021/09/06 07:42:47;;;;;;;9.23;6.87;;;20.50;99.90;;;;;;4996651;28;20452;-67
2021/09/06 07:45:13;;;;;;;10.10;6.77;;;20.60;99.90;;;;;;5002651;28;20461;-66
2021/09/06 07:47:38;;;;;;;9.33;7.70;;;20.70;99.90;;;;;;5000720;28;20447;-67
2021/09/06 07:50:07;;;;;;;9.83;7.13;;;20.70;99.90;;;;;;4999765;28;20443;-66
2021/09/06 07:52:34;;;;;;;8.00;6.50;;;20.60;99.90;;;;;;5002567;28;20193;-67
2021/09/06 07:55:00;;;;;;;8.60;6.70;;;20.80;99.90;;;;;;5004065;28;20440;-67
2021/09/06 07:57:26;;;;;;;7.60;6.77;;;20.90;99.90;;;;;;4999374;28;21064;-67
2021/09/06 07:59:52;;;;;;;8.10;7.30;;;20.70;99.90;;;;;;5001032;28;20539;-67
2021/09/06 08:02:17;;;;;;;9.07;6.97;;;20.70;99.90;;;;;;5002573;28;20189;-66
2021/09/06 08:04:43;;;;;;;7.70;6.57;;;20.80;99.90;;;;;;5001300;28;20257;-66
2021/09/06 08:07:08;;;;;;;16.30;7.60;;;20.80;99.90;;;;;;5002403;28;20216;-66
2021/09/06 08:09:34;;;;;;;9.30;8.40;;;20.90;99.90;;;;;;5002089;28;20189;-66
2021/09/06 08:12:00;;;;;;;8.63;7.77;;;20.90;99.90;;;;;;4998403;28;20275;-66
2021/09/06 08:14:27;;;;;;;7.70;6.90;;;21.00;99.90;;;;;;5001710;28;20198;-66
2021/09/06 08:16:53;;;;;;;11.77;7.57;;;21.00;99.90;;;;;;4999110;28;20205;-66
2021/09/06 08:19:19;;;;;;;8.30;7.50;;;21.10;99.90;;;;;;4998283;28;20959;-66
2021/09/06 08:21:44;;;;;;;9.80;7.40;;;21.30;99.90;;;;;;5003486;28;20436;-66
2021/09/06 08:24:11;;;;;;;8.73;6.93;;;21.40;99.90;;;;;;5000887;28;20688;-66
2021/09/06 08:26:37;;;;;;;14.97;6.80;;;21.40;99.90;;;;;;5002293;28;20274;-66
2021/09/06 08:29:03;;;;;;;8.13;6.90;;;21.30;99.90;;;;;;5015726;28;20432;-66
2021/09/06 08:31:30;;;;;;;8.53;7.30;;;21.20;99.90;;;;;;4999620;28;20668;-67
2021/09/06 08:33:57;;;;;;;10.77;6.70;;;21.40;99.90;;;;;;5002046;28;20258;-66
2021/09/06 08:36:23;;;;;;;8.50;7.00;;;21.50;99.90;;;;;;5003837;28;20486;-66
2021/09/06 08:38:48;;;;;;;10.33;7.00;;;21.60;99.90;;;;;;5003127;28;20427;-67
2021/09/06 08:41:14;;;;;;;8.10;6.63;;;21.70;99.90;;;;;;4999067;28;20528;-66
2021/09/06 08:43:40;;;;;;;10.50;7.40;;;21.80;99.90;;;;;;5003827;28;20197;-66
2021/09/06 08:46:06;;;;;;;9.97;6.33;;;21.90;99.90;;;;;;5004376;28;20197;-67
2021/09/06 08:48:32;;;;;;;9.50;7.90;;;22.10;99.90;;;;;;5002433;28;20196;-66
2021/09/06 08:50:58;;;;;;;8.50;6.43;;;22.10;99.90;;;;;;5004983;28;20193;-66
2021/09/06 08:53:24;;;;;;;10.70;6.20;;;22.10;99.90;;;;;;5003976;28;20309;-66
2021/09/06 08:55:51;;;;;;;7.10;6.40;;;22.20;99.90;;;;;;5000215;28;20457;-66
2021/09/06 08:58:17;;;;;;;8.43;6.40;;;22.30;99.90;;;;;;5001455;28;20201;-66
2021/09/06 09:00:47;;;;;;;7.70;6.70;;;22.30;99.90;;;;;;5000025;28;21075;-66
2021/09/06 09:03:14;;;;;;;7.63;6.90;;;22.40;99.90;;;;;;5002991;28;20431;-66
2021/09/06 09:06:04;;;;;;;8.57;7.20;;;22.40;99.90;;;;;;5005219;28;20582;-66
2021/09/06 09:08:30;;;;;;;7.97;6.50;;;22.40;99.90;;;;;;5004795;28;20535;-66
2021/09/06 09:10:59;;;;;;;7.93;6.87;;;22.40;99.90;;;;;;5007094;28;20506;-65
2021/09/06 09:13:29;;;;;;;7.63;6.60;;;22.50;99.90;;;;;;5003613;28;20439;-65
2021/09/06 09:15:55;;;;;;;10.70;8.37;;;22.60;99.90;;;;;;5005134;28;20482;-66
2021/09/06 09:18:26;;;;;;;9.23;7.77;;;22.60;99.90;;;;;;5003639;28;20451;-65
2021/09/06 09:21:14;;;;;;;10.77;7.03;;;22.80;99.90;;;;;;5003469;28;20428;-65
2021/09/06 09:23:48;;;;;;;7.67;6.63;;;22.80;99.90;;;;;;5004772;28;20474;-65
2021/09/06 09:26:14;;;;;;;7.23;6.53;;;22.90;99.90;;;;;;5002668;28;20502;-66
2021/09/06 09:28:43;;;;;;;7.13;6.53;;;23.00;99.90;;;;;;5004738;28;20439;-66
2021/09/06 09:31:14;;;;;;;7.47;6.67;;;23.10;99.90;;;;;;5000174;28;20425;-65
2021/09/06 09:33:45;;;;;;;9.80;7.73;;;23.30;99.90;;;;;;5005808;28;20586;-65
2021/09/06 09:36:11;;;;;;;9.17;6.90;;;23.40;99.90;;;;;;5002593;28;20460;-65
2021/09/06 09:38:38;;;;;;;7.30;6.60;;;23.40;99.90;;;;;;5003795;28;20431;-66
2021/09/06 09:41:15;;;;;;;7.60;6.83;;;23.50;99.90;;;;;;5001055;28;21048;-65
2021/09/06 09:43:40;;;;;;;11.90;6.80;;;23.50;99.90;;;;;;4998358;28;20475;-65
2021/09/06 09:46:06;;;;;;;7.27;6.50;;;23.60;99.90;;;;;;5001693;28;20919;-65
2021/09/06 09:48:32;;;;;;;7.43;6.73;;;23.80;99.90;;;;;;5000350;28;20181;-65
2021/09/06 09:50:58;;;;;;;11.53;7.20;;;23.90;99.90;;;;;;5002930;28;20897;-66
2021/09/06 09:53:23;;;;;;;6.83;6.13;;;24.00;99.90;;;;;;5004287;28;20212;-65
2021/09/06 09:55:49;;;;;;;7.50;6.80;;;24.10;99.90;;;;;;5004161;28;20201;-65
2021/09/06 09:58:16;;;;;;;7.80;6.30;;;24.10;99.90;;;;;;5003390;28;20679;-66
2021/09/06 10:00:46;;;;;;;7.43;6.60;;;24.20;99.90;;;;;;5001321;28;20810;-66
2021/09/06 10:03:14;;;;;;;11.47;6.80;;;24.20;99.90;;;;;;5003266;28;20833;-65
2021/09/06 10:05:41;;;;;;;7.63;6.80;;;24.20;99.90;;;;;;4988048;28;21109;-63
2021/09/06 10:08:14;;;;;;;9.30;7.83;;;24.30;99.90;;;;;;5002455;28;20433;-63
2021/09/06 10:10:41;;;;;;;8.67;6.60;;;24.30;99.90;;;;;;5005583;28;20511;-63
2021/09/06 10:13:11;;;;;;;9.30;6.80;;;24.40;99.90;;;;;;5000369;28;20467;-63
2021/09/06 10:15:39;;;;;;;7.50;6.70;;;24.50;99.90;;;;;;5003954;28;20535;-64
2021/09/06 10:18:22;;;;;;;7.80;6.80;;;24.40;99.90;;;;;;4996280;28;20547;-63
2021/09/06 10:20:49;;;;;;;7.80;7.00;;;24.50;99.90;;;;;;5004540;28;20447;-63
2021/09/06 10:23:15;;;;;;;7.73;6.93;;;24.60;99.90;;;;;;5003017;28;20885;-63
2021/09/06 10:25:43;;;;;;;8.17;6.80;;;24.70;99.90;;;;;;5002615;28;20443;-63
2021/09/06 10:28:13;;;;;;;8.30;6.60;;;24.70;99.90;;;;;;5000898;28;20457;-65
2021/09/06 10:30:40;;;;;;;7.43;6.60;;;24.80;99.90;;;;;;5002554;28;20428;-63
2021/09/06 10:33:07;;;;;;;7.40;6.70;;;24.80;99.90;;;;;;5000008;28;20448;-63
2021/09/06 10:35:34;;;;;;;8.80;6.50;;;24.80;99.90;;;;;;5005263;28;20444;-64
2021/09/06 10:38:26;;;;;;;8.80;6.53;;;24.80;99.90;;;;;;5002710;28;20437;-65
2021/09/06 10:40:51;;;;;;;8.00;6.13;;;24.90;99.90;;;;;;4999359;28;20444;-63
2021/09/06 10:43:20;;;;;;;9.90;6.80;;;25.00;99.90;;;;;;5001198;28;20443;-63
2021/09/06 10:45:48;;;;;;;7.77;6.97;;;25.00;99.90;;;;;;5002380;28;20201;-63
2021/09/06 10:48:22;;;;;;;7.80;6.87;;;25.20;99.90;;;;;;5002399;28;20440;-63
2021/09/06 10:50:49;;;;;;;6.90;6.10;;;25.20;99.90;;;;;;5002929;28;20455;-63
2021/09/06 10:53:21;;;;;;;7.53;6.83;;;25.20;99.90;;;;;;5000121;28;20432;-65
2021/09/06 10:55:51;;;;;;;8.30;6.47;;;25.30;98.40;;;;;;4999956;28;20800;-63
2021/09/06 10:58:20;;;;;;;7.63;6.93;;;25.40;98.50;;;;;;5001063;28;20471;-63
2021/09/06 11:00:52;;;;;;;7.83;6.37;;;25.50;97.00;;;;;;5001488;28;20432;-63
2021/09/06 11:03:18;;;;;;;7.10;6.50;;;25.50;94.70;;;;;;5002628;28;20519;-63
2021/09/06 11:05:57;;;;;;;8.60;6.90;;;25.60;95.40;;;;;;4997787;28;20479;-63
2021/09/06 11:08:28;;;;;;;7.10;6.40;;;25.60;93.50;;;;;;5002373;28;20185;-63
2021/09/06 11:10:55;;;;;;;7.10;6.40;;;25.70;96.80;;;;;;4997559;28;20437;-63
2021/09/06 11:13:21;;;;;;;8.63;6.57;;;25.70;93.70;;;;;;4998054;28;20440;-65
2021/09/06 11:15:48;;;;;;;7.07;6.47;;;25.80;96.40;;;;;;5001480;28;20452;-63
2021/09/06 11:18:13;;;;;;;7.13;6.43;;;25.80;94.70;;;;;;4999150;28;20444;-63
2021/09/06 11:20:39;;;;;;;6.93;6.30;;;25.90;94.90;;;;;;4999655;28;20444;-63
2021/09/06 11:23:07;;;;;;;7.10;6.40;;;25.90;95.20;;;;;;4999592;28;20192;-63
2021/09/06 11:25:35;;;;;;;8.50;6.70;;;26.00;95.40;;;;;;5002604;28;20177;-62
2021/09/06 11:28:13;;;;;;;7.43;6.20;;;26.10;95.10;;;;;;5000029;28;20441;-63
2021/09/06 11:30:41;;;;;;;7.87;7.07;;;26.10;92.40;;;;;;5011978;28;20529;-63
2021/09/06 11:33:10;;;;;;;6.50;5.90;;;26.20;93.10;;;;;;5000288;28;20468;-64
2021/09/06 11:35:45;;;;;;;6.97;5.77;;;26.30;93.00;;;;;;5002749;28;20498;-64
2021/09/06 11:38:13;;;;;;;6.77;6.07;;;26.40;92.30;;;;;;4999695;28;20441;-63
2021/09/06 11:40:40;;;;;;;7.37;5.90;;;26.50;90.90;;;;;;5000343;28;20470;-64
2021/09/06 11:43:07;;;;;;;6.90;6.20;;;26.60;91.60;;;;;;5002335;28;20450;-64
2021/09/06 11:45:34;;;;;;;10.23;6.60;;;26.70;89.70;;;;;;5000825;28;20939;-64
2021/09/06 11:48:07;;;;;;;7.67;5.93;;;26.80;90.90;;;;;;5001080;28;20436;-64
2021/09/06 11:50:41;;;;;;;7.13;5.97;;;27.00;91.20;;;;;;5000776;28;20427;-64
2021/09/06 11:53:14;;;;;;;9.47;8.00;;;27.20;91.90;;;;;;5001621;28;20435;-64
2021/09/06 11:55:50;;;;;;;8.60;6.27;;;27.30;91.70;;;;;;4997442;28;20451;-64
2021/09/06 11:58:15;;;;;;;8.20;6.67;;;27.50;90.80;;;;;;4999470;28;20488;-64
2021/09/06 12:00:42;;;;;;;9.47;6.00;;;27.70;90.10;;;;;;4998770;28;20440;-64
2021/09/06 12:03:10;;;;;;;10.60;6.97;;;28.50;90.60;;;;;;4999281;28;21707;-64
2021/09/06 12:05:41;;;;;;;7.80;7.03;;;29.80;89.00;;;;;;5000084;28;20869;-64
2021/09/06 12:08:14;;;;;;;8.77;7.90;;;31.00;86.70;;;;;;5000599;28;20438;-64
2021/09/06 12:10:43;;;;;;;7.03;6.40;;;31.90;80.70;;;;;;5007207;28;20903;-64
2021/09/06 12:13:17;;;;;;;7.53;6.50;;;31.90;78.70;;;;;;5003079;28;20412;-64
2021/09/06 12:15:59;;;;;;;7.07;6.37;;;31.70;76.30;;;;;;5001988;28;20807;-64
2021/09/06 12:18:42;;;;;;;7.60;6.53;;;31.80;74.60;;;;;;5003067;28;20498;-64
2021/09/06 12:21:21;;;;;;;7.83;6.10;;;32.10;72.60;;;;;;5001682;28;20441;-64
2021/09/06 12:23:50;;;;;;;8.97;8.17;;;32.40;79.50;;;;;;5001362;28;20836;-65
2021/09/06 12:26:17;;;;;;;10.07;8.53;;;32.70;79.40;;;;;;5006955;28;20442;-65
2021/09/06 12:28:50;;;;;;;8.80;6.10;;;32.90;78.20;;;;;;5003816;28;20426;-66
2021/09/06 12:31:17;;;;;;;6.97;6.37;;;33.00;65.50;;;;;;5001931;28;20436;-65
2021/09/06 12:33:43;;;;;;;8.10;7.30;;;33.00;65.00;;;;;;4998428;28;20599;-65
2021/09/06 12:36:09;;;;;;;7.17;6.10;;;33.60;65.20;;;;;;5002950;28;20444;-65
2021/09/06 12:38:35;;;;;;;7.33;6.60;;;34.00;61.20;;;;;;5003561;28;20186;-66
2021/09/06 12:41:01;;;;;;;6.90;6.30;;;34.10;60.40;;;;;;5003097;28;20436;-65
2021/09/06 12:43:27;;;;;;;6.87;6.27;;;33.90;59.50;;;;;;5004749;28;20587;-65